Time;durP1;ratioP1;P1;durP2;ratioP2;P2;SDS_P1;SDS_P2;PMS_P1;PMS_P2;Temp;Humidity;BMP_temperature;BMP_pressure;BME280_temperature;BME280_humidity;BME280_pressure;Samples;Min_cycle;Max_cycle;Signal;HPM_P1;HPM_P2
2022/01/14 00:01:14;;;;;;;;;;;;;;;;;;5086076;28;1898;-78
2022/01/14 00:03:40;;;;;;;;;;;;;;;;;;5083238;28;1147;-77
2022/01/14 00:06:06;;;;;;;;;;;;;;;;;;5070272;28;1190;-78
2022/01/14 00:08:32;;;;;;;;;;;;;;;;;;5086087;28;1150;-78
2022/01/14 00:10:59;;;;;;;;;;;;;;;;;;5086647;28;1251;-78
2022/01/14 00:13:46;;;;;;;;;;;;;;;;;;5072317;28;1120;-78
2022/01/14 00:16:11;;;;;;;;;;;;;;;;;;5046346;28;1121;-78
2022/01/14 00:18:36;;;;;;;;;;;;;;;;;;5045752;28;1224;-78
2022/01/14 00:21:02;;;;;;;;;;;;;;;;;;5065541;28;1905;-78
2022/01/14 00:23:32;;;;;;;;;;;;;;;;;;5050089;28;1240;-78
2022/01/14 00:34:13;;;;;;;;;;;;;;;;;;5065653;28;1011;-77
2022/01/14 00:36:38;;;;;;;;;;;;;;;;;;5063398;28;1279;-77
2022/01/14 00:39:04;;;;;;;;;;;;;;;;;;5065602;28;1236;-78
2022/01/14 00:41:30;;;;;;;;;;;;;;;;;;5066817;28;1918;-77
2022/01/14 00:44:01;;;;;;;;;;;;;;;;;;5045647;28;1243;-77
2022/01/14 00:46:26;;;;;;;;;;;;;;;;;;5047911;28;1204;-79
2022/01/14 00:48:51;;;;;;;;;;;;;;;;;;5045673;28;1270;-77
2022/01/14 00:51:17;;;;;;;;;;;;;;;;;;5066393;28;1179;-77
2022/01/14 00:53:42;;;;;;;;;;;;;;;;;;5065341;28;1253;-77
2022/01/14 00:56:20;;;;;;;;;;;;;;;;;;5083050;28;1160;-77
2022/01/14 01:01:30;;;;;;;;;;;;;;;;;;5064577;28;1902;-77
2022/01/14 01:03:55;;;;;;;;;;;;;;;;;;5061315;28;1303;-78
2022/01/14 01:06:20;;;;;;;;;;;;;;;;;;5066402;28;1149;-77
2022/01/14 01:08:48;;;;;;;;;;;;;;;;;;5070217;28;1195;-78
2022/01/14 01:11:13;;;;;;;;;;;;;;;;;;5087917;28;1195;-78
2022/01/14 01:13:48;;;;;;;;;;;;;;;;;;5084140;28;1227;-78
2022/01/14 01:16:13;;;;;;;;;;;;;;;;;;5085003;28;1174;-78
2022/01/14 01:18:39;;;;;;;;;;;;;;;;;;5084165;28;1068;-78
2022/01/14 01:21:04;;;;;;;;;;;;;;;;;;5068033;28;1959;-77
2022/01/14 01:23:30;;;;;;;;;;;;;;;;;;5087206;28;1183;-78
2022/01/14 01:26:03;;;;;;;;;;;;;;;;;;5072306;28;1146;-78
2022/01/14 01:28:29;;;;;;;;;;;;;;;;;;5073404;28;1232;-78
2022/01/14 01:33:25;;;;;;;;;;;;;;;;;;5083328;28;1290;-78
2022/01/14 01:35:51;;;;;;;;;;;;;;;;;;5082275;28;1431;-78
2022/01/14 01:38:17;;;;;;;;;;;;;;;;;;5068783;28;1140;-78
2022/01/14 01:40:44;;;;;;;;;;;;;;;;;;5082920;28;1939;-77
2022/01/14 01:43:11;;;;;;;;;;;;;;;;;;5083425;28;1185;-78
2022/01/14 01:45:47;;;;;;;;;;;;;;;;;;5085798;28;1206;-75
2022/01/14 01:48:13;;;;;;;;;;;;;;;;;;5084920;28;1103;-77
2022/01/14 01:50:49;;;;;;;;;;;;;;;;;;5081456;28;1077;-77
2022/01/14 01:53:14;;;;;;;;;;;;;;;;;;5083775;28;1307;-77
2022/01/14 01:55:49;;;;;;;;;;;;;;;;;;5082753;28;1188;-77
2022/01/14 01:58:15;;;;;;;;;;;;;;;;;;5076081;28;1282;-77
2022/01/14 02:01:00;;;;;;;;;;;;;;;;;;5063350;28;1925;-77
2022/01/14 02:03:26;;;;;;;;;;;;;;;;;;5081156;28;1418;-77
2022/01/14 02:05:51;;;;;;;;;;;;;;;;;;5068291;28;1213;-78
2022/01/14 02:08:16;;;;;;;;;;;;;;;;;;5047683;28;1168;-77
2022/01/14 02:10:48;;;;;;;;;;;;;;;;;;5064049;28;1112;-78
2022/01/14 02:13:15;;;;;;;;;;;;;;;;;;5064719;28;1158;-77
2022/01/14 02:23:53;;;;;;;;;;;;;;;;;;5075306;28;996;-78
2022/01/14 02:26:19;;;;;;;;;;;;;;;;;;5085655;28;1198;-77
2022/01/14 02:28:45;;;;;;;;;;;;;;;;;;5083538;28;1340;-77
2022/01/14 02:31:11;;;;;;;;;;;;;;;;;;5083295;28;1278;-77
2022/01/14 02:33:36;;;;;;;;;;;;;;;;;;5081239;28;1198;-77
2022/01/14 02:36:02;;;;;;;;;;;;;;;;;;5065420;28;1311;-77
2022/01/14 02:38:31;;;;;;;;;;;;;;;;;;5084267;28;1312;-77
2022/01/14 02:40:57;;;;;;;;;;;;;;;;;;5082847;28;1948;-77
2022/01/14 02:43:25;;;;;;;;;;;;;;;;;;5083485;28;1219;-77
2022/01/14 02:45:55;;;;;;;;;;;;;;;;;;5076490;28;1185;-78
2022/01/14 02:48:41;;;;;;;;;;;;;;;;;;5063094;28;1140;-76
2022/01/14 02:51:12;;;;;;;;;;;;;;;;;;5077686;28;1392;-77
2022/01/14 02:56:05;;;;;;;;;;;;;;;;;;5081857;28;1072;-77
2022/01/14 02:58:32;;;;;;;;;;;;;;;;;;5066295;28;1310;-77
2022/01/14 03:01:02;;;;;;;;;;;;;;;;;;5063402;28;1939;-77
2022/01/14 03:03:29;;;;;;;;;;;;;;;;;;5065350;28;1168;-76
2022/01/14 03:05:55;;;;;;;;;;;;;;;;;;5082346;28;1159;-76
2022/01/14 03:08:21;;;;;;;;;;;;;;;;;;5083723;28;1222;-76
2022/01/14 03:10:58;;;;;;;;;;;;;;;;;;5083167;28;1234;-76
2022/01/14 03:13:23;;;;;;;;;;;;;;;;;;5063090;28;1159;-76
2022/01/14 03:15:58;;;;;;;;;;;;;;;;;;5062487;28;1232;-77
2022/01/14 03:18:40;;;;;;;;;;;;;;;;;;5071521;28;1144;-78
2022/01/14 03:21:13;;;;;;;;;;;;;;;;;;5074623;28;1945;-78
2022/01/14 03:23:48;;;;;;;;;;;;;;;;;;5082920;28;1293;-78
2022/01/14 03:26:15;;;;;;;;;;;;;;;;;;5082363;28;1281;-78
2022/01/14 03:28:41;;;;;;;;;;;;;;;;;;5082758;28;1113;-78
2022/01/14 03:31:07;;;;;;;;;;;;;;;;;;5077787;28;1445;-78
2022/01/14 03:33:33;;;;;;;;;;;;;;;;;;5059636;28;1171;-76
2022/01/14 03:35:58;;;;;;;;;;;;;;;;;;5043749;28;1178;-77
2022/01/14 03:38:24;;;;;;;;;;;;;;;;;;5046298;28;1226;-77
2022/01/14 03:40:58;;;;;;;;;;;;;;;;;;5062810;28;1901;-77
2022/01/14 03:43:24;;;;;;;;;;;;;;;;;;5082055;28;1175;-77
2022/01/14 03:46:08;;;;;;;;;;;;;;;;;;5044103;28;1189;-77
2022/01/14 03:48:33;;;;;;;;;;;;;;;;;;5059825;28;1250;-78
2022/01/14 03:50:58;;;;;;;;;;;;;;;;;;5044742;28;1121;-76
2022/01/14 03:53:24;;;;;;;;;;;;;;;;;;5068634;28;1183;-76
2022/01/14 03:55:49;;;;;;;;;;;;;;;;;;5085500;28;1136;-77
2022/01/14 03:58:14;;;;;;;;;;;;;;;;;;5069150;28;1158;-77
2022/01/14 04:00:40;;;;;;;;;;;;;;;;;;5087456;28;1897;-77
2022/01/14 04:03:06;;;;;;;;;;;;;;;;;;5067240;28;1359;-77
2022/01/14 04:05:31;;;;;;;;;;;;;;;;;;5064999;28;1238;-77
2022/01/14 04:07:57;;;;;;;;;;;;;;;;;;5067666;28;1223;-76
2022/01/14 04:10:23;;;;;;;;;;;;;;;;;;5066983;28;1176;-77
2022/01/14 04:12:55;;;;;;;;;;;;;;;;;;5049461;28;1334;-77
2022/01/14 04:15:41;;;;;;;;;;;;;;;;;;5066212;28;1355;-77
2022/01/14 04:18:08;;;;;;;;;;;;;;;;;;5063400;28;1513;-77
2022/01/14 04:20:35;;;;;;;;;;;;;;;;;;5064721;28;2015;-76
2022/01/14 04:23:01;;;;;;;;;;;;;;;;;;5084456;28;1392;-76
2022/01/14 04:25:26;;;;;;;;;;;;;;;;;;5069428;28;1198;-76
2022/01/14 04:27:51;;;;;;;;;;;;;;;;;;5088218;28;1207;-76
2022/01/14 04:30:17;;;;;;;;;;;;;;;;;;5073377;28;1196;-77
2022/01/14 04:32:42;;;;;;;;;;;;;;;;;;5065283;28;1216;-76
2022/01/14 04:35:08;;;;;;;;;;;;;;;;;;5061989;28;1203;-76
2022/01/14 04:37:33;;;;;;;;;;;;;;;;;;5066949;28;1178;-77
2022/01/14 04:40:03;;;;;;;;;;;;;;;;;;5071844;28;1972;-77
2022/01/14 04:42:29;;;;;;;;;;;;;;;;;;5086965;28;1229;-76
2022/01/14 04:44:56;;;;;;;;;;;;;;;;;;5086789;28;1299;-76
2022/01/14 04:47:44;;;;;;;;;;;;;;;;;;5083086;28;1415;-76
2022/01/14 04:50:10;;;;;;;;;;;;;;;;;;5061423;28;1198;-76
2022/01/14 04:52:35;;;;;;;;;;;;;;;;;;5068236;28;1140;-78
2022/01/14 04:55:01;;;;;;;;;;;;;;;;;;5086080;28;1254;-77
2022/01/14 04:57:27;;;;;;;;;;;;;;;;;;5069093;28;1318;-78
2022/01/14 04:59:52;;;;;;;;;;;;;;;;;;5085580;28;1951;-78
2022/01/14 05:02:17;;;;;;;;;;;;;;;;;;5080498;28;1152;-78
2022/01/14 05:04:44;;;;;;;;;;;;;;;;;;5081521;28;1198;-75
2022/01/14 05:07:15;;;;;;;;;;;;;;;;;;5081685;28;1456;-77
2022/01/14 05:09:44;;;;;;;;;;;;;;;;;;5069141;28;1502;-77
2022/01/14 05:12:10;;;;;;;;;;;;;;;;;;5067428;28;1228;-78
2022/01/14 05:14:36;;;;;;;;;;;;;;;;;;5085626;28;1202;-77
2022/01/14 05:17:02;;;;;;;;;;;;;;;;;;5064904;28;1335;-77
2022/01/14 05:19:27;;;;;;;;;;;;;;;;;;5079451;28;1203;-78
2022/01/14 05:21:53;;;;;;;;;;;;;;;;;;5085328;28;1973;-77
2022/01/14 05:24:18;;;;;;;;;;;;;;;;;;5066776;28;1211;-77
2022/01/14 05:26:43;;;;;;;;;;;;;;;;;;5067071;28;1206;-77
2022/01/14 05:29:08;;;;;;;;;;;;;;;;;;5072480;28;1135;-75
2022/01/14 05:31:45;;;;;;;;;;;;;;;;;;5083166;28;1174;-76
2022/01/14 05:34:10;;;;;;;;;;;;;;;;;;5079675;28;1444;-76
2022/01/14 05:36:35;;;;;;;;;;;;;;;;;;5085932;28;1285;-76
2022/01/14 05:39:03;;;;;;;;;;;;;;;;;;5083340;28;1303;-77
2022/01/14 05:41:28;;;;;;;;;;;;;;;;;;5044669;28;1915;-76
2022/01/14 05:43:53;;;;;;;;;;;;;;;;;;5046743;28;1290;-76
2022/01/14 05:46:19;;;;;;;;;;;;;;;;;;5062114;28;1211;-77
2022/01/14 05:48:44;;;;;;;;;;;;;;;;;;5045070;28;1311;-78
2022/01/14 05:51:09;;;;;;;;;;;;;;;;;;5080848;28;1152;-77
2022/01/14 05:53:34;;;;;;;;;;;;;;;;;;5085375;28;1159;-77
2022/01/14 05:56:00;;;;;;;;;;;;;;;;;;5066478;28;1176;-77
2022/01/14 05:58:25;;;;;;;;;;;;;;;;;;5063277;28;1164;-77
2022/01/14 06:00:51;;;;;;;;;;;;;;;;;;5063023;28;1955;-77
2022/01/14 06:03:18;;;;;;;;;;;;;;;;;;5044602;28;1327;-77
2022/01/14 06:05:44;;;;;;;;;;;;;;;;;;5060131;28;1294;-77
2022/01/14 06:08:09;;;;;;;;;;;;;;;;;;5065290;28;1342;-77
2022/01/14 06:10:35;;;;;;;;;;;;;;;;;;5072133;28;1148;-77
2022/01/14 06:13:00;;;;;;;;;;;;;;;;;;5063731;28;1192;-77
2022/01/14 06:15:25;;;;;;;;;;;;;;;;;;5071929;28;1160;-77
2022/01/14 06:17:51;;;;;;;;;;;;;;;;;;5062582;28;1065;-77
2022/01/14 06:20:16;;;;;;;;;;;;;;;;;;5043672;28;1957;-77
2022/01/14 06:22:41;;;;;;;;;;;;;;;;;;5068866;28;1540;-77
2022/01/14 06:25:10;;;;;;;;;;;;;;;;;;5064777;28;1347;-77
2022/01/14 06:27:35;;;;;;;;;;;;;;;;;;5063993;28;1192;-77
2022/01/14 06:30:01;;;;;;;;;;;;;;;;;;5071589;28;1253;-77
2022/01/14 06:32:26;;;;;;;;;;;;;;;;;;5080081;28;1322;-77
2022/01/14 06:34:51;;;;;;;;;;;;;;;;;;5059195;28;1247;-77
2022/01/14 06:37:17;;;;;;;;;;;;;;;;;;5063220;28;1060;-78
2022/01/14 06:39:42;;;;;;;;;;;;;;;;;;5064340;28;1215;-77
2022/01/14 06:42:14;;;;;;;;;;;;;;;;;;5070951;28;1905;-77
2022/01/14 06:44:39;;;;;;;;;;;;;;;;;;5068097;28;1198;-77
2022/01/14 06:47:04;;;;;;;;;;;;;;;;;;5083410;28;1274;-77
2022/01/14 06:49:30;;;;;;;;;;;;;;;;;;5074222;28;1084;-77
2022/01/14 06:51:55;;;;;;;;;;;;;;;;;;5081478;28;1168;-77
2022/01/14 06:54:20;;;;;;;;;;;;;;;;;;5082143;28;1076;-77
2022/01/14 06:56:46;;;;;;;;;;;;;;;;;;5083171;28;1154;-76
2022/01/14 06:59:14;;;;;;;;;;;;;;;;;;5079404;28;1200;-77
2022/01/14 07:01:40;;;;;;;;;;;;;;;;;;5079175;28;1893;-76
2022/01/14 07:04:05;;;;;;;;;;;;;;;;;;5044330;28;1208;-75
2022/01/14 07:06:30;;;;;;;;;;;;;;;;;;5063525;28;1215;-76
2022/01/14 07:08:55;;;;;;;;;;;;;;;;;;5062525;28;1337;-76
2022/01/14 07:11:25;;;;;;;;;;;;;;;;;;5073861;28;1032;-76
2022/01/14 07:13:51;;;;;;;;;;;;;;;;;;5081650;28;1193;-75
2022/01/14 07:16:16;;;;;;;;;;;;;;;;;;5080064;28;1116;-75
2022/01/14 07:18:45;;;;;;;;;;;;;;;;;;5080063;28;1167;-76
2022/01/14 07:21:11;;;;;;;;;;;;;;;;;;5065004;28;1901;-76
2022/01/14 07:23:36;;;;;;;;;;;;;;;;;;5063265;28;1281;-76
2022/01/14 07:26:02;;;;;;;;;;;;;;;;;;5066830;28;1369;-77
2022/01/14 07:28:27;;;;;;;;;;;;;;;;;;5053011;28;1354;-76
2022/01/14 07:30:52;;;;;;;;;;;;;;;;;;5064589;28;1053;-77
2022/01/14 07:33:30;;;;;;;;;;;;;;;;;;5064229;28;1582;-77
2022/01/14 07:35:56;;;;;;;;;;;;;;;;;;5066476;28;1236;-77
2022/01/14 07:38:21;;;;;;;;;;;;;;;;;;5048470;28;1292;-77
2022/01/14 07:40:46;;;;;;;;;;;;;;;;;;5066820;28;1910;-77
2022/01/14 07:43:13;;;;;;;;;;;;;;;;;;5048784;28;1207;-76
2022/01/14 07:45:38;;;;;;;;;;;;;;;;;;5064102;28;1412;-76
2022/01/14 07:48:03;;;;;;;;;;;;;;;;;;5062460;28;1202;-76
2022/01/14 07:50:29;;;;;;;;;;;;;;;;;;5063283;28;1171;-76
2022/01/14 07:52:54;;;;;;;;;;;;;;;;;;5085622;28;1385;-76
2022/01/14 07:55:19;;;;;;;;;;;;;;;;;;5052135;28;1305;-76
2022/01/14 07:57:46;;;;;;;;;;;;;;;;;;5075408;28;1313;-77
2022/01/14 08:00:11;;;;;;;;;;;;;;;;;;5071038;28;1952;-77
2022/01/14 08:02:37;;;;;;;;;;;;;;;;;;5083351;28;1164;-78
2022/01/14 08:05:03;;;;;;;;;;;;;;;;;;5084536;28;1358;-77
2022/01/14 08:07:29;;;;;;;;;;;;;;;;;;5068389;28;1426;-77
2022/01/14 08:09:55;;;;;;;;;;;;;;;;;;5087849;28;1171;-77
2022/01/14 08:12:23;;;;;;;;;;;;;;;;;;5087505;28;1380;-77
2022/01/14 08:14:48;;;;;;;;;;;;;;;;;;5087216;28;1287;-77
2022/01/14 08:17:17;;;;;;;;;;;;;;;;;;5083604;28;1226;-77
2022/01/14 08:19:43;;;;;;;;;;;;;;;;;;5084528;28;1322;-76
2022/01/14 08:22:08;;;;;;;;;;;;;;;;;;5069796;28;1889;-77
2022/01/14 08:24:33;;;;;;;;;;;;;;;;;;5084397;28;1286;-77
2022/01/14 08:26:59;;;;;;;;;;;;;;;;;;5086027;28;1277;-77
2022/01/14 08:29:25;;;;;;;;;;;;;;;;;;5086239;28;1187;-77
2022/01/14 08:31:50;;;;;;;;;;;;;;;;;;5082679;28;1188;-77
2022/01/14 08:34:16;;;;;;;;;;;;;;;;;;5078673;28;1268;-77
2022/01/14 08:36:41;;;;;;;;;;;;;;;;;;5063894;28;1357;-78
2022/01/14 08:39:07;;;;;;;;;;;;;;;;;;5048011;28;1176;-77
2022/01/14 08:41:32;;;;;;;;;;;;;;;;;;5062946;28;1910;-77
2022/01/14 08:43:58;;;;;;;;;;;;;;;;;;5048305;28;1192;-77
2022/01/14 08:46:27;;;;;;;;;;;;;;;;;;5062112;28;1164;-75
2022/01/14 08:48:54;;;;;;;;;;;;;;;;;;5064682;28;1293;-75
2022/01/14 08:51:20;;;;;;;;;;;;;;;;;;5066161;28;1148;-78
2022/01/14 08:53:46;;;;;;;;;;;;;;;;;;5064018;28;1988;-77
2022/01/14 08:56:11;;;;;;;;;;;;;;;;;;5073444;28;1168;-78
2022/01/14 08:58:37;;;;;;;;;;;;;;;;;;5068288;28;1305;-78
2022/01/14 09:01:02;;;;;;;;;;;;;;;;;;5045708;28;1890;-78
2022/01/14 09:03:27;;;;;;;;;;;;;;;;;;5064497;28;1088;-76
2022/01/14 09:05:53;;;;;;;;;;;;;;;;;;5066304;28;1164;-78
2022/01/14 09:08:18;;;;;;;;;;;;;;;;;;5065340;28;1219;-78
2022/01/14 09:10:45;;;;;;;;;;;;;;;;;;5063137;28;1269;-79
2022/01/14 09:13:10;;;;;;;;;;;;;;;;;;5049166;28;1309;-77
2022/01/14 09:15:36;;;;;;;;;;;;;;;;;;5057842;28;1313;-77
2022/01/14 09:18:02;;;;;;;;;;;;;;;;;;5066012;28;1426;-77
2022/01/14 09:20:28;;;;;;;;;;;;;;;;;;5082924;28;1878;-79
2022/01/14 09:22:57;;;;;;;;;;;;;;;;;;5086438;28;1140;-77
2022/01/14 09:25:28;;;;;;;;;;;;;;;;;;5067771;28;1092;-75
2022/01/14 09:27:53;;;;;;;;;;;;;;;;;;5063903;28;1199;-76
2022/01/14 09:30:20;;;;;;;;;;;;;;;;;;5062903;28;1204;-78
2022/01/14 09:32:45;;;;;;;;;;;;;;;;;;5060690;28;1412;-76
2022/01/14 09:35:13;;;;;;;;;;;;;;;;;;5047712;28;1212;-77
2022/01/14 09:37:39;;;;;;;;;;;;;;;;;;5084249;28;1167;-77
2022/01/14 09:40:05;;;;;;;;;;;;;;;;;;5068544;28;1984;-76
2022/01/14 09:42:31;;;;;;;;;;;;;;;;;;5068834;28;1166;-82
2022/01/14 09:44:57;;;;;;;;;;;;;;;;;;5066655;28;1286;-80
2022/01/14 09:47:23;;;;;;;;;;;;;;;;;;5082561;28;1203;-86
2022/01/14 09:49:49;;;;;;;;;;;;;;;;;;5079289;28;1415;-81
2022/01/14 09:52:15;;;;;;;;;;;;;;;;;;5064167;28;1160;-80
2022/01/14 09:54:41;;;;;;;;;;;;;;;;;;5045593;28;1347;-80
2022/01/14 09:57:08;;;;;;;;;;;;;;;;;;5049089;28;1169;-81
2022/01/14 09:59:33;;;;;;;;;;;;;;;;;;5046890;28;1171;-81
2022/01/14 10:02:00;;;;;;;;;;;;;;;;;;5047105;28;1948;-80
2022/01/14 10:04:29;;;;;;;;;;;;;;;;;;5062153;28;1256;-80
2022/01/14 10:06:55;;;;;;;;;;;;;;;;;;5065293;28;1248;-81
2022/01/14 10:09:23;;;;;;;;;;;;;;;;;;5063888;28;1196;-77
2022/01/14 10:12:00;;;;;;;;;;;;;;;;;;5081522;28;1163;-76
2022/01/14 10:14:32;;;;;;;;;;;;;;;;;;5085521;28;1115;-79
2022/01/14 10:16:58;;;;;;;;;;;;;;;;;;5081264;28;1524;-78
2022/01/14 10:19:34;;;;;;;;;;;;;;;;;;5081844;28;1294;-79
2022/01/14 10:22:01;;;;;;;;;;;;;;;;;;5066327;28;1993;-79
2022/01/14 10:24:34;;;;;;;;;;;;;;;;;;5067922;28;1184;-79
2022/01/14 10:27:03;;;;;;;;;;;;;;;;;;5063412;28;1226;-79
2022/01/14 10:29:47;;;;;;;;;;;;;;;;;;5063894;28;1191;-80
2022/01/14 10:32:19;;;;;;;;;;;;;;;;;;5060022;28;1300;-81
2022/01/14 10:34:47;;;;;;;;;;;;;;;;;;5059631;28;1168;-80
2022/01/14 10:37:14;;;;;;;;;;;;;;;;;;5063311;28;1272;-80
2022/01/14 10:39:45;;;;;;;;;;;;;;;;;;5060486;28;1209;-80
2022/01/14 10:42:36;;;;;;;;;;;;;;;;;;5074574;28;1985;-80
2022/01/14 10:45:15;;;;;;;;;;;;;;;;;;5081981;28;1403;-81
2022/01/14 10:47:40;;;;;;;;;;;;;;;;;;5079362;28;1280;-80
2022/01/14 10:50:06;;;;;;;;;;;;;;;;;;5051056;28;1307;-79
2022/01/14 10:52:37;;;;;;;;;;;;;;;;;;5061452;28;1281;-80
2022/01/14 10:55:02;;;;;;;;;;;;;;;;;;5044885;28;1188;-76
2022/01/14 10:57:33;;;;;;;;;;;;;;;;;;5064342;28;1188;-80
2022/01/14 11:00:16;;;;;;;;;;;;;;;;;;5060918;28;1215;-81
2022/01/14 11:02:45;;;;;;;;;;;;;;;;;;5056686;28;1269;-82
2022/01/14 11:05:11;;;;;;;;;;;;;;;;;;5061712;28;1302;-80
2022/01/14 11:07:37;;;;;;;;;;;;;;;;;;5066689;28;1141;-80
2022/01/14 11:10:13;;;;;;;;;;;;;;;;;;5077158;28;1417;-80
2022/01/14 11:12:39;;;;;;;;;;;;;;;;;;5084712;28;1108;-80
2022/01/14 11:15:06;;;;;;;;;;;;;;;;;;5069143;28;1305;-82
2022/01/14 11:17:40;;;;;;;;;;;;;;;;;;5084895;28;1194;-83
2022/01/14 11:20:08;;;;;;;;;;;;;;;;;;5083178;28;1190;-83
2022/01/14 11:25:19;;;;;;;;;;;;;;;;;;5086141;28;1051;-83
2022/01/14 11:27:49;;;;;;;;;;;;;;;;;;5057967;28;1273;-81
2022/01/14 11:30:14;;;;;;;;;;;;;;;;;;5067267;28;1104;-85
2022/01/14 11:33:09;;;;;;;;;;;;;;;;;;5062048;28;1164;-83
2022/01/14 11:35:52;;;;;;;;;;;;;;;;;;5056845;28;1448;-87
2022/01/14 11:38:53;;;;;;;;;;;;;;;;;;5085652;28;1260;-88
2022/01/14 11:44:53;;;;;;;;;;;;;;;;;;5078845;28;1331;-85
2022/01/14 11:47:28;;;;;;;;;;;;;;;;;;5069585;28;1212;-88
2022/01/14 11:49:57;;;;;;;;;;;;;;;;;;5071340;28;1303;-88
2022/01/14 11:52:40;;;;;;;;;;;;;;;;;;5067168;28;1287;-88
2022/01/14 11:55:17;;;;;;;;;;;;;;;;;;5077683;28;1143;-86
2022/01/14 11:57:45;;;;;;;;;;;;;;;;;;5080479;28;1089;-89
2022/01/14 12:03:29;;;;;;;;;;;;;;;;;;5082107;28;1171;-81
2022/01/14 12:05:54;;;;;;;;;;;;;;;;;;5081759;28;1226;-83
2022/01/14 12:08:23;;;;;;;;;;;;;;;;;;5066812;28;1348;-81
2022/01/14 12:10:50;;;;;;;;;;;;;;;;;;5066696;28;1084;-82
2022/01/14 12:13:54;;;;;;;;;;;;;;;;;;5087435;28;1371;-83
2022/01/14 12:16:20;;;;;;;;;;;;;;;;;;5063647;28;1083;-85
2022/01/14 12:18:45;;;;;;;;;;;;;;;;;;5062581;28;1360;-83
2022/01/14 12:21:11;;;;;;;;;;;;;;;;;;5065812;28;1942;-79
2022/01/14 12:23:36;;;;;;;;;;;;;;;;;;5065587;28;1214;-83
2022/01/14 12:26:15;;;;;;;;;;;;;;;;;;5059324;28;1270;-84
2022/01/14 12:28:45;;;;;;;;;;;;;;;;;;5083072;28;1278;-82
2022/01/14 12:31:10;;;;;;;;;;;;;;;;;;5082664;28;1171;-83
2022/01/14 12:33:45;;;;;;;;;;;;;;;;;;5067469;28;1026;-83
2022/01/14 12:36:16;;;;;;;;;;;;;;;;;;5081772;28;1367;-83
2022/01/14 12:38:47;;;;;;;;;;;;;;;;;;5072098;28;1239;-84
2022/01/14 12:41:13;;;;;;;;;;;;;;;;;;5070138;28;1921;-86
2022/01/14 12:43:46;;;;;;;;;;;;;;;;;;5075370;28;1312;-78
2022/01/14 12:46:14;;;;;;;;;;;;;;;;;;5063686;28;1271;-85
2022/01/14 12:48:56;;;;;;;;;;;;;;;;;;5075197;28;1212;-85
2022/01/14 12:51:21;;;;;;;;;;;;;;;;;;5070164;28;1192;-84
2022/01/14 12:53:47;;;;;;;;;;;;;;;;;;5083901;28;1289;-84
2022/01/14 12:56:17;;;;;;;;;;;;;;;;;;5074784;28;1273;-84
2022/01/14 12:58:53;;;;;;;;;;;;;;;;;;5077200;28;1323;-83
2022/01/14 13:01:18;;;;;;;;;;;;;;;;;;5085839;28;1964;-83
2022/01/14 13:03:53;;;;;;;;;;;;;;;;;;5069530;28;1184;-83
2022/01/14 13:06:18;;;;;;;;;;;;;;;;;;5068914;28;1327;-85
2022/01/14 13:08:54;;;;;;;;;;;;;;;;;;5069524;28;1282;-83
2022/01/14 13:11:19;;;;;;;;;;;;;;;;;;5068014;28;1202;-83
2022/01/14 13:14:20;;;;;;;;;;;;;;;;;;5084644;28;1261;-83
2022/01/14 13:16:51;;;;;;;;;;;;;;;;;;5063282;28;1283;-83
2022/01/14 13:19:42;;;;;;;;;;;;;;;;;;5082008;28;1307;-84
2022/01/14 13:22:12;;;;;;;;;;;;;;;;;;5078595;28;1948;-84
2022/01/14 13:24:38;;;;;;;;;;;;;;;;;;5084236;28;1353;-84
2022/01/14 13:27:04;;;;;;;;;;;;;;;;;;5082237;28;1200;-84
2022/01/14 13:29:35;;;;;;;;;;;;;;;;;;5083619;28;1324;-84
2022/01/14 13:32:01;;;;;;;;;;;;;;;;;;5081870;28;1306;-84
2022/01/14 13:34:26;;;;;;;;;;;;;;;;;;5068427;28;1291;-84
2022/01/14 13:36:52;;;;;;;;;;;;;;;;;;5089840;28;1159;-84
2022/01/14 13:39:19;;;;;;;;;;;;;;;;;;5072528;28;1250;-84
2022/01/14 13:41:52;;;;;;;;;;;;;;;;;;5085063;28;1963;-84
2022/01/14 13:44:19;;;;;;;;;;;;;;;;;;5083525;28;1297;-84
2022/01/14 13:47:07;;;;;;;;;;;;;;;;;;5076533;28;1194;-84
2022/01/14 13:49:33;;;;;;;;;;;;;;;;;;5060962;28;1365;-84
2022/01/14 13:52:06;;;;;;;;;;;;;;;;;;5060345;28;1216;-83
2022/01/14 13:54:31;;;;;;;;;;;;;;;;;;5071566;28;1364;-83
2022/01/14 13:57:06;;;;;;;;;;;;;;;;;;5074012;28;1201;-83
2022/01/14 13:59:32;;;;;;;;;;;;;;;;;;5083905;28;1293;-84
2022/01/14 14:01:59;;;;;;;;;;;;;;;;;;5070591;28;1890;-84
2022/01/14 14:04:26;;;;;;;;;;;;;;;;;;5060525;28;1246;-83
2022/01/14 14:07:03;;;;;;;;;;;;;;;;;;5061885;28;1156;-84
2022/01/14 14:09:35;;;;;;;;;;;;;;;;;;5063752;28;1156;-85
2022/01/14 14:17:38;;;;;;;;;;;;;;;;;;5063615;28;1075;-85
2022/01/14 14:20:04;;;;;;;;;;;;;;;;;;5072741;28;1408;-85
2022/01/14 14:22:35;;;;;;;;;;;;;;;;;;5083701;28;1902;-85
2022/01/14 14:25:23;;;;;;;;;;;;;;;;;;5066515;28;1289;-85
2022/01/14 14:27:59;;;;;;;;;;;;;;;;;;5064010;28;1293;-85
2022/01/14 14:30:27;;;;;;;;;;;;;;;;;;5063733;28;1232;-85
2022/01/14 14:32:58;;;;;;;;;;;;;;;;;;5079228;28;1251;-85
2022/01/14 14:35:23;;;;;;;;;;;;;;;;;;5048953;28;1301;-85
2022/01/14 14:37:57;;;;;;;;;;;;;;;;;;5073832;28;1199;-85
2022/01/14 14:40:27;;;;;;;;;;;;;;;;;;5043920;28;1989;-85
2022/01/14 14:42:56;;;;;;;;;;;;;;;;;;5063284;28;1299;-84
2022/01/14 14:45:21;;;;;;;;;;;;;;;;;;5062997;28;1306;-84
2022/01/14 14:47:47;;;;;;;;;;;;;;;;;;5064983;28;1192;-85
2022/01/14 14:50:14;;;;;;;;;;;;;;;;;;5075429;28;1241;-85
2022/01/14 14:52:39;;;;;;;;;;;;;;;;;;5082593;28;1330;-86
2022/01/14 14:55:07;;;;;;;;;;;;;;;;;;5083008;28;1128;-86
2022/01/14 14:57:32;;;;;;;;;;;;;;;;;;5068158;28;1237;-86
2022/01/14 14:59:57;;;;;;;;;;;;;;;;;;5082282;28;1203;-86
2022/01/14 15:02:23;;;;;;;;;;;;;;;;;;5053749;28;2229;-83
2022/01/14 15:04:48;;;;;;;;;;;;;;;;;;5045086;28;1299;-85
2022/01/14 15:07:13;;;;;;;;;;;;;;;;;;5061988;28;1255;-86
2022/01/14 15:09:39;;;;;;;;;;;;;;;;;;5071342;28;1295;-90
2022/01/14 15:12:04;;;;;;;;;;;;;;;;;;5065256;28;1178;-87
2022/01/14 15:14:30;;;;;;;;;;;;;;;;;;5052165;28;1227;-88
2022/01/14 15:19:30;;;;;;;;;;;;;;;;;;5062865;28;1081;-88
2022/01/14 15:21:59;;;;;;;;;;;;;;;;;;5068852;28;1890;-87
2022/01/14 15:24:24;;;;;;;;;;;;;;;;;;5056681;28;1204;-88
2022/01/14 15:26:50;;;;;;;;;;;;;;;;;;5079979;28;1301;-88
2022/01/14 15:29:15;;;;;;;;;;;;;;;;;;5071289;28;1215;-88
2022/01/14 15:31:47;;;;;;;;;;;;;;;;;;5055447;28;1157;-88
2022/01/14 15:34:12;;;;;;;;;;;;;;;;;;5065100;28;1242;-88
2022/01/14 15:36:38;;;;;;;;;;;;;;;;;;5074345;28;1248;-88
2022/01/14 15:39:04;;;;;;;;;;;;;;;;;;5048491;28;1184;-88
2022/01/14 15:41:31;;;;;;;;;;;;;;;;;;5079844;28;1894;-87
2022/01/14 15:44:03;;;;;;;;;;;;;;;;;;5081310;28;1123;-87
2022/01/14 15:46:29;;;;;;;;;;;;;;;;;;5073736;28;1237;-87
2022/01/14 15:48:54;;;;;;;;;;;;;;;;;;5057463;28;1341;-88
2022/01/14 15:51:24;;;;;;;;;;;;;;;;;;5079692;28;1160;-88
2022/01/14 15:54:03;;;;;;;;;;;;;;;;;;5076384;28;1040;-87
2022/01/14 15:56:28;;;;;;;;;;;;;;;;;;5073829;28;1214;-86
2022/01/14 15:58:53;;;;;;;;;;;;;;;;;;5086464;28;1146;-86
2022/01/14 16:01:19;;;;;;;;;;;;;;;;;;5078466;28;1929;-81
2022/01/14 16:03:44;;;;;;;;;;;;;;;;;;5078256;28;1230;-89
2022/01/14 16:06:10;;;;;;;;;;;;;;;;;;5077525;28;1228;-84
2022/01/14 16:08:36;;;;;;;;;;;;;;;;;;5066555;28;1135;-83
2022/01/14 16:11:05;;;;;;;;;;;;;;;;;;5070046;28;1179;-84
2022/01/14 16:13:34;;;;;;;;;;;;;;;;;;5060102;28;1382;-84
2022/01/14 16:16:05;;;;;;;;;;;;;;;;;;5069469;28;1372;-82
2022/01/14 16:18:34;;;;;;;;;;;;;;;;;;5077207;28;1144;-83
2022/01/14 16:21:05;;;;;;;;;;;;;;;;;;5062968;28;1921;-83
2022/01/14 16:23:33;;;;;;;;;;;;;;;;;;5061281;28;1201;-83
2022/01/14 16:26:07;;;;;;;;;;;;;;;;;;5041585;28;1245;-81
2022/01/14 16:28:33;;;;;;;;;;;;;;;;;;5064390;28;1268;-83
2022/01/14 16:30:59;;;;;;;;;;;;;;;;;;5076694;28;1365;-88
2022/01/14 16:33:29;;;;;;;;;;;;;;;;;;5063357;28;1257;-84
2022/01/14 16:35:58;;;;;;;;;;;;;;;;;;5058411;28;1307;-83
2022/01/14 16:38:24;;;;;;;;;;;;;;;;;;5057003;28;1301;-82
2022/01/14 16:40:49;;;;;;;;;;;;;;;;;;5063320;28;1910;-82
2022/01/14 16:43:14;;;;;;;;;;;;;;;;;;5042407;28;1383;-83
2022/01/14 16:45:40;;;;;;;;;;;;;;;;;;5059455;28;1293;-83
2022/01/14 16:48:08;;;;;;;;;;;;;;;;;;5071984;28;1202;-91
2022/01/14 16:50:33;;;;;;;;;;;;;;;;;;5070149;28;1181;-89
2022/01/14 16:52:59;;;;;;;;;;;;;;;;;;5074813;28;1290;-90
2022/01/14 16:55:27;;;;;;;;;;;;;;;;;;5068734;28;1318;-89
2022/01/14 16:57:53;;;;;;;;;;;;;;;;;;5072105;28;1161;-91
2022/01/14 17:00:18;;;;;;;;;;;;;;;;;;5060694;28;1209;-90
2022/01/14 17:02:44;;;;;;;;;;;;;;;;;;5072129;28;1924;-91
2022/01/14 17:05:09;;;;;;;;;;;;;;;;;;5055210;28;1250;-90
2022/01/14 17:07:35;;;;;;;;;;;;;;;;;;5076695;28;1269;-89
2022/01/14 17:10:00;;;;;;;;;;;;;;;;;;5066690;28;1201;-90
2022/01/14 17:12:29;;;;;;;;;;;;;;;;;;5069472;28;1156;-90
2022/01/14 17:14:54;;;;;;;;;;;;;;;;;;5076890;28;1239;-91
2022/01/14 17:17:20;;;;;;;;;;;;;;;;;;5046896;28;1143;-90
2022/01/14 17:19:46;;;;;;;;;;;;;;;;;;5076602;28;1294;-91
2022/01/14 17:22:11;;;;;;;;;;;;;;;;;;5076808;28;1890;-90
2022/01/14 17:24:36;;;;;;;;;;;;;;;;;;5074105;28;1222;-90
2022/01/14 17:27:12;;;;;;;;;;;;;;;;;;5081637;28;1291;-91
2022/01/14 17:29:38;;;;;;;;;;;;;;;;;;5067984;28;1427;-88
2022/01/14 17:32:31;;;;;;;;;;;;;;;;;;5057275;28;1267;-87
2022/01/14 17:35:03;;;;;;;;;;;;;;;;;;5074809;28;1113;-83
2022/01/14 17:37:42;;;;;;;;;;;;;;;;;;5066502;28;1304;-87
2022/01/14 17:40:34;;;;;;;;;;;;;;;;;;5077743;28;1314;-86
2022/01/14 17:46:13;;;;;;;;;;;;;;;;;;5062586;28;1177;-87
2022/01/14 17:48:59;;;;;;;;;;;;;;;;;;;;;
2022/01/14 17:51:27;;;;;;;;;;;;;;;;;;5077048;28;989;-85
2022/01/14 17:53:53;;;;;;;;;;;;;;;;;;5071686;28;1190;-83
2022/01/14 17:56:19;;;;;;;;;;;;;;;;;;5057958;28;1267;-85